createdAt,value
2023-12-09T00:03:35.662Z,3.80
2023-12-09T00:07:40.594Z,3.82
2023-12-09T00:11:43.658Z,3.87
2023-12-09T00:15:47.141Z,3.94
2023-12-09T00:19:50.273Z,3.98
2023-12-09T00:23:54.714Z,4.04
2023-12-09T00:27:57.781Z,4.06
2023-12-09T00:32:00.783Z,4.11
2023-12-09T00:36:03.986Z,4.13
2023-12-09T00:40:09.664Z,4.17
2023-12-09T00:44:12.799Z,4.20
2023-12-09T00:48:15.964Z,4.20
2023-12-09T00:52:19.150Z,4.16
2023-12-09T00:56:33.688Z,4.12
2023-12-09T01:00:38.474Z,4.11
2023-12-09T01:04:41.655Z,4.05
2023-12-09T01:08:44.988Z,4.01
2023-12-09T01:12:49.608Z,3.98
2023-12-09T01:16:52.632Z,3.97
2023-12-09T01:20:55.746Z,3.96
2023-12-09T01:24:58.868Z,3.96
2023-12-09T01:29:04.526Z,3.96
2023-12-09T01:33:07.956Z,3.92
2023-12-09T01:37:11.252Z,3.89
2023-12-09T01:41:14.376Z,3.90
2023-12-09T01:45:18.978Z,3.91
2023-12-09T01:49:22.465Z,3.91
2023-12-09T01:53:25.820Z,3.93
2023-12-09T01:57:29.974Z,3.95
2023-12-09T02:01:37.550Z,3.97
2023-12-09T02:05:41.613Z,3.98
2023-12-09T02:09:45.946Z,3.97
2023-12-09T02:13:58.274Z,3.97
2023-12-09T02:18:06.008Z,3.99
2023-12-09T02:22:10.798Z,4.01
2023-12-09T02:26:19.872Z,4.05
2023-12-09T02:30:30.479Z,4.11
2023-12-09T02:34:38.534Z,4.13
2023-12-09T02:38:43.783Z,4.17
2023-12-09T02:42:50.496Z,4.19
2023-12-09T02:46:57.126Z,4.21
2023-12-09T02:51:00.247Z,4.24
2023-12-09T02:55:06.159Z,4.29
2023-12-09T02:59:10.634Z,4.31
2023-12-09T03:03:13.831Z,4.33
2023-12-09T03:07:21.437Z,4.35
2023-12-09T03:11:24.686Z,4.38
2023-12-09T03:15:29.243Z,4.38
2023-12-09T03:19:32.427Z,4.39
2023-12-09T03:23:35.595Z,4.39
2023-12-09T03:27:38.762Z,4.42
2023-12-09T03:31:43.381Z,4.42
2023-12-09T03:35:46.389Z,4.43
2023-12-09T03:39:49.458Z,4.44
2023-12-09T03:43:52.559Z,4.46
2023-12-09T03:47:57.347Z,4.48
2023-12-09T03:52:00.581Z,4.49
2023-12-09T03:56:04.689Z,4.50
2023-12-09T04:00:10.779Z,4.51
2023-12-09T04:04:15.287Z,4.50
2023-12-09T04:08:18.446Z,4.51
2023-12-09T04:12:21.551Z,4.51
2023-12-09T04:16:24.626Z,4.51
2023-12-09T04:20:29.386Z,4.51
2023-12-09T04:24:32.937Z,4.51
2023-12-09T04:28:36.169Z,4.51
2023-12-09T04:32:39.315Z,4.50
2023-12-09T04:36:43.793Z,4.49
2023-12-09T04:40:46.816Z,4.48
2023-12-09T04:44:49.884Z,4.47
2023-12-09T04:48:52.968Z,4.47
2023-12-09T04:52:57.462Z,4.47
2023-12-09T04:57:00.576Z,4.46
2023-12-09T05:01:06.191Z,4.44
2023-12-09T05:05:09.718Z,4.40
2023-12-09T05:09:15.222Z,4.38
2023-12-09T05:13:18.340Z,4.36
2023-12-09T05:17:21.357Z,4.36
2023-12-09T05:21:35.040Z,4.34
2023-12-09T05:25:40.929Z,4.29
2023-12-09T05:29:44.770Z,4.26
2023-12-09T05:33:47.979Z,4.24
2023-12-09T05:37:51.158Z,4.21
2023-12-09T05:41:55.608Z,4.16
2023-12-09T05:45:59.112Z,4.14
2023-12-09T05:50:02.930Z,4.14
2023-12-09T05:54:06.459Z,4.16
2023-12-09T05:58:10.980Z,4.19
2023-12-09T06:02:14.329Z,4.23
2023-12-09T06:06:17.845Z,4.27
2023-12-09T06:10:21.126Z,4.29
2023-12-09T06:14:25.560Z,4.30
2023-12-09T06:18:28.670Z,4.31
2023-12-09T06:22:31.853Z,4.33
2023-12-09T06:26:34.924Z,4.33
2023-12-09T06:30:39.302Z,4.31
2023-12-09T06:34:42.567Z,4.29
2023-12-09T06:38:45.665Z,4.23
2023-12-09T06:42:48.771Z,4.22
2023-12-09T06:46:53.202Z,4.21
2023-12-09T06:50:56.282Z,4.18
2023-12-09T06:54:59.363Z,4.15
2023-12-09T06:59:02.336Z,4.13
2023-12-09T07:03:07.174Z,4.09
2023-12-09T07:07:21.857Z,4.06
2023-12-09T07:11:25.861Z,4.04
2023-12-09T07:15:29.010Z,4.02
2023-12-09T07:19:33.622Z,4.01
2023-12-09T07:23:37.193Z,3.99
2023-12-09T07:27:40.250Z,3.99
2023-12-09T07:31:43.465Z,3.98
2023-12-09T07:35:47.857Z,3.97
2023-12-09T07:39:51.317Z,4.04
2023-12-09T07:43:54.495Z,4.15
2023-12-09T07:47:57.778Z,4.24
2023-12-09T07:52:02.379Z,4.34
2023-12-09T07:56:07.323Z,4.43
2023-12-09T08:00:12.219Z,4.53
2023-12-09T08:04:16.220Z,4.76
2023-12-09T08:08:20.789Z,4.92
2023-12-09T08:12:23.990Z,4.86
2023-12-09T08:16:27.133Z,4.80
2023-12-09T08:20:30.171Z,4.75
2023-12-09T08:24:34.945Z,4.79
2023-12-09T08:28:38.113Z,4.90
2023-12-09T08:32:42.730Z,5.09
2023-12-09T08:37:12.114Z,5.17
2023-12-09T10:23:34.633Z,5.01
2023-12-09T10:55:09.784Z,6.07
2023-12-09T10:59:27.841Z,6.24
2023-12-09T11:03:48.493Z,6.47
2023-12-09T11:13:08.144Z,6.71
2023-12-09T11:17:34.716Z,6.69
2023-12-09T11:21:54.250Z,6.73
2023-12-09T11:26:15.682Z,6.82
2023-12-09T11:30:34.794Z,6.99
2023-12-09T11:44:29.641Z,7.20
2023-12-09T12:00:15.068Z,6.56
2023-12-09T12:05:17.008Z,6.47
2023-12-09T12:09:21.644Z,6.42
2023-12-09T12:32:09.171Z,6.17
2023-12-09T12:36:59.858Z,6.17
2023-12-09T13:22:46.085Z,5.99
2023-12-09T13:27:04.451Z,5.97
2023-12-09T13:31:26.485Z,5.95
2023-12-09T13:35:38.131Z,5.95
2023-12-09T13:40:26.158Z,5.95
2023-12-09T13:44:30.759Z,5.96
2023-12-09T13:48:34.377Z,5.99
2023-12-09T13:52:38.041Z,6.01
2023-12-09T13:56:41.402Z,6.03
2023-12-09T14:00:49.663Z,6.05
2023-12-09T14:04:53.731Z,6.03
2023-12-09T14:09:13.195Z,6.00
2023-12-09T14:13:16.538Z,5.97
2023-12-09T14:17:21.080Z,5.91
2023-12-09T14:39:19.904Z,5.65
2023-12-09T14:43:27.478Z,5.61
2023-12-09T14:47:30.879Z,5.57
2023-12-09T14:51:40.952Z,5.57
2023-12-09T15:07:55.184Z,5.51
2023-12-09T15:12:01.912Z,5.49
2023-12-09T15:16:07.642Z,5.53
2023-12-09T15:20:11.554Z,5.54
2023-12-09T15:24:16.106Z,5.54
2023-12-09T15:28:21.416Z,5.50
2023-12-09T15:32:26.287Z,5.52
2023-12-09T15:36:29.803Z,5.51
2023-12-09T15:40:34.209Z,5.55
2023-12-09T15:44:37.298Z,5.53
2023-12-09T15:48:41.220Z,5.52
2023-12-09T15:52:45.333Z,5.52
2023-12-09T15:56:50.169Z,5.54
2023-12-09T16:00:53.518Z,5.55
2023-12-09T16:04:56.718Z,5.56
2023-12-09T16:08:59.812Z,5.60
2023-12-09T16:13:04.802Z,5.62
2023-12-09T16:17:08.020Z,5.65
2023-12-09T16:21:11.122Z,5.66
2023-12-09T16:25:14.351Z,5.66
2023-12-09T16:29:18.775Z,5.66
2023-12-09T16:33:21.996Z,5.65
2023-12-09T16:37:25.723Z,5.65
2023-12-09T16:41:28.750Z,5.64
2023-12-09T16:45:33.271Z,5.64
2023-12-09T16:49:36.628Z,5.65
2023-12-09T16:53:39.691Z,5.65
2023-12-09T16:57:43.129Z,5.65
2023-12-09T17:01:48.272Z,5.64
2023-12-09T17:05:51.413Z,5.65
2023-12-09T17:09:54.447Z,5.66
2023-12-09T17:13:57.507Z,5.66
2023-12-09T17:18:02.323Z,5.66
2023-12-09T17:22:05.974Z,5.64
2023-12-09T17:26:09.522Z,5.63
2023-12-09T17:30:16.041Z,5.61
2023-12-09T17:34:20.726Z,5.59
2023-12-09T17:38:23.930Z,5.60
2023-12-09T17:42:27.212Z,5.64
2023-12-09T17:46:30.458Z,5.67
2023-12-09T17:50:34.865Z,5.67
2023-12-09T17:54:37.988Z,5.67
2023-12-09T17:58:43.322Z,5.66
2023-12-09T18:02:46.657Z,5.67
2023-12-09T18:06:51.226Z,5.66
2023-12-09T18:10:54.304Z,5.67
2023-12-09T18:14:57.312Z,5.65
2023-12-09T18:19:00.458Z,5.67
2023-12-09T18:23:04.910Z,5.70
2023-12-09T18:27:09.311Z,5.75
2023-12-09T18:31:12.432Z,5.77
2023-12-09T18:35:16.647Z,5.75
2023-12-09T18:39:22.687Z,5.75
2023-12-09T18:43:25.928Z,5.76
2023-12-09T18:47:30.634Z,5.76
2023-12-09T18:51:34.549Z,5.80
2023-12-09T18:55:39.000Z,5.84
2023-12-09T18:59:43.093Z,5.84
2023-12-09T19:03:46.258Z,5.85
2023-12-09T19:07:49.375Z,5.86
2023-12-09T19:11:53.993Z,5.88
2023-12-09T19:15:57.040Z,5.91
2023-12-09T19:20:00.515Z,5.94
2023-12-09T19:24:03.716Z,5.96
2023-12-09T19:28:10.948Z,5.98
2023-12-09T19:32:15.892Z,6.00
2023-12-09T19:36:20.996Z,6.01
2023-12-09T19:40:24.179Z,6.05
2023-12-09T19:44:37.560Z,6.19
2023-12-09T19:48:40.777Z,6.77
2023-12-09T19:52:44.407Z,7.38
2023-12-09T19:56:47.484Z,7.70
2023-12-09T20:00:55.853Z,7.98
2023-12-09T20:04:59.093Z,8.20
2023-12-09T20:13:28.972Z,8.36
2023-12-09T20:17:36.393Z,8.28
2023-12-09T20:21:39.476Z,8.21
2023-12-09T20:25:42.714Z,8.08
2023-12-09T20:29:47.458Z,8.03
2023-12-09T20:33:52.109Z,7.90
2023-12-09T20:37:55.393Z,7.80
2023-12-09T20:41:58.484Z,7.73
2023-12-09T20:46:02.364Z,7.68
2023-12-09T20:50:08.410Z,7.62
2023-12-09T20:54:11.885Z,7.70
2023-12-09T20:58:15.496Z,7.67
2023-12-09T21:02:18.809Z,7.63
2023-12-09T21:06:23.306Z,7.60
2023-12-09T21:10:27.404Z,7.56
2023-12-09T21:14:30.458Z,7.54
2023-12-09T21:18:33.567Z,7.54
2023-12-09T21:22:38.965Z,7.56
2023-12-09T21:26:42.046Z,7.62
2023-12-09T21:30:45.164Z,7.65
2023-12-09T21:34:49.926Z,7.67
2023-12-09T21:38:54.623Z,7.71
2023-12-09T21:42:57.751Z,7.72
2023-12-09T21:47:00.885Z,7.73
2023-12-09T21:51:06.511Z,7.76
2023-12-09T21:55:12.715Z,7.86
2023-12-09T21:59:15.725Z,7.95
2023-12-09T22:03:18.842Z,7.95
2023-12-09T22:07:24.588Z,7.96
2023-12-09T22:11:29.063Z,7.95
2023-12-09T22:15:32.127Z,8.03
2023-12-09T22:19:35.239Z,8.06
2023-12-09T22:23:43.578Z,8.05
2023-12-09T22:27:48.041Z,8.08
2023-12-09T22:31:51.095Z,8.05
2023-12-09T22:35:56.030Z,8.07
2023-12-09T22:39:59.760Z,8.07
2023-12-09T22:44:04.275Z,8.11
2023-12-09T22:48:14.918Z,8.19
2023-12-09T22:52:18.214Z,8.19
2023-12-09T22:56:22.268Z,8.19
2023-12-09T23:00:33.520Z,8.17
2023-12-09T23:04:38.586Z,8.18
2023-12-09T23:08:45.166Z,8.22
2023-12-09T23:12:48.430Z,8.24
2023-12-09T23:16:55.187Z,8.21
2023-12-09T23:20:58.711Z,8.25
2023-12-09T23:25:01.794Z,8.19
2023-12-09T23:29:10.334Z,8.11
2023-12-09T23:33:14.942Z,8.11
2023-12-09T23:37:18.052Z,8.11
2023-12-09T23:41:22.660Z,8.10
2023-12-09T23:45:25.805Z,8.05
2023-12-09T23:49:30.368Z,8.03
2023-12-09T23:53:33.486Z,7.98
2023-12-09T23:57:39.727Z,7.95
